Time,TemperatureF,DewpointF,PressureIn,WindDirection,WindDirectionDegrees,WindSpeedMPH,WindSpeedGustMPH,Humidity,HourlyPrecipIn,Conditions,Clouds,dailyrainin,SoftwareType,DateUTC
2013-04-15 00:02:00,42.0,39.0,29.95,West,275,0.0,-999.0,90,-99.99,,,-99.99,,2013-04-15 07:02:00,
2013-04-15 00:53:00,42.0,39.0,29.95,West,265,0.0,-999.0,89,-99.99,,,-99.99,,2013-04-15 07:53:00,
2013-04-15 01:02:00,42.0,39.0,29.95,West,265,0.0,-999.0,88,-99.99,,,-99.99,,2013-04-15 08:02:00,
2013-04-15 01:11:00,42.0,39.0,29.95,West,265,0.0,-999.0,88,-99.99,,,-99.99,,2013-04-15 08:11:00,
2013-04-15 01:21:00,42.0,39.0,29.95,West,265,0.0,-999.0,89,-99.99,,,-99.99,,2013-04-15 08:21:00,
2013-04-15 01:32:00,42.0,39.0,29.95,West,265,0.0,-999.0,89,-99.99,,,-99.99,,2013-04-15 08:32:00,
2013-04-15 01:42:00,42.0,39.0,29.95,West,265,0.0,-999.0,89,-99.99,,,-99.99,,2013-04-15 08:42:00,
2013-04-15 01:52:00,42.0,39.0,29.94,WNW,287,0.0,-999.0,89,-99.99,,,-99.99,,2013-04-15 08:52:00,
2013-04-15 02:01:00,42.0,39.0,29.94,WNW,287,0.0,-999.0,89,-99.99,,,-99.99,,2013-04-15 09:01:00,
2013-04-15 02:12:00,42.0,39.0,29.94,WNW,287,0.0,-999.0,89,-99.99,,,-99.99,,2013-04-15 09:12:00,
2013-04-15 02:22:00,42.0,39.0,29.94,WNW,287,0.0,-999.0,89,-99.99,,,-99.99,,2013-04-15 09:22:00,
2013-04-15 02:32:00,42.0,39.0,29.94,WNW,287,0.0,-999.0,89,-99.99,,,-99.99,,2013-04-15 09:32:00,
2013-04-15 02:42:00,42.0,39.0,29.94,WNW,287,0.0,-999.0,89,-99.99,,,-99.99,,2013-04-15 09:42:00,
2013-04-15 02:53:00,42.0,39.0,29.93,WNW,287,0.0,-999.0,89,-99.99,,,-99.99,,2013-04-15 09:53:00,
2013-04-15 03:02:00,42.0,39.0,29.93,WNW,287,0.0,-999.0,89,-99.99,,,-99.99,,2013-04-15 10:02:00,
2013-04-15 03:12:00,42.0,39.0,29.93,WNW,287,0.0,-999.0,89,-99.99,,,-99.99,,2013-04-15 10:12:00,
2013-04-15 03:22:00,42.0,39.0,29.93,WNW,287,0.0,-999.0,89,-99.99,,,-99.99,,2013-04-15 10:22:00,
2013-04-15 03:32:00,42.0,39.0,29.93,WNW,288,0.0,-999.0,89,-99.99,,,-99.99,,2013-04-15 10:32:00,
2013-04-15 03:42:00,42.0,39.0,29.93,WNW,288,0.0,-999.0,89,-99.99,,,-99.99,,2013-04-15 10:42:00,
2013-04-15 03:52:00,42.0,39.0,29.93,WNW,288,0.0,-999.0,89,-99.99,,,-99.99,,2013-04-15 10:52:00,
2013-04-15 04:02:00,42.0,39.0,29.93,WNW,288,0.0,-999.0,89,-99.99,,,-99.99,,2013-04-15 11:02:00,
2013-04-15 04:12:00,42.0,39.0,29.93,WNW,288,0.0,-999.0,89,-99.99,,,-99.99,,2013-04-15 11:12:00,
2013-04-15 04:22:00,41.0,38.0,29.93,WNW,288,0.0,-999.0,89,-99.99,,,-99.99,,2013-04-15 11:22:00,
2013-04-15 04:32:00,41.0,38.0,29.94,West,279,0.0,-999.0,89,-99.99,,,-99.99,,2013-04-15 11:32:00,
2013-04-15 04:42:00,41.0,38.0,29.94,West,279,0.0,-999.0,89,-99.99,,,-99.99,,2013-04-15 11:42:00,
2013-04-15 04:53:00,41.0,38.0,29.94,WNW,290,0.0,-999.0,89,-99.99,,,-99.99,,2013-04-15 11:53:00,
2013-04-15 05:02:00,41.0,38.0,29.94,WNW,290,0.0,-999.0,89,-99.99,,,-99.99,,2013-04-15 12:02:00,
2013-04-15 05:12:00,41.0,38.0,29.94,WNW,290,0.0,-999.0,89,-99.99,,,-99.99,,2013-04-15 12:12:00,
2013-04-15 05:22:00,41.0,38.0,29.94,WNW,290,0.0,-999.0,89,-99.99,,,-99.99,,2013-04-15 12:22:00,
2013-04-15 05:32:00,41.0,38.0,29.94,WNW,292,0.0,-999.0,89,-99.99,,,-99.99,,2013-04-15 12:32:00,
2013-04-15 05:42:00,41.0,38.0,29.94,WNW,292,0.0,-999.0,89,-99.99,,,-99.99,,2013-04-15 12:42:00,
2013-04-15 05:53:00,41.0,38.0,29.94,West,279,0.0,-999.0,89,-99.99,,,-99.99,,2013-04-15 12:53:00,
2013-04-15 06:02:00,40.0,37.0,29.94,West,268,0.0,-999.0,89,-99.99,,,-99.99,,2013-04-15 13:02:00,
2013-04-15 06:12:00,40.0,37.0,29.94,West,268,0.0,-999.0,89,-99.99,,,-99.99,,2013-04-15 13:12:00,
2013-04-15 06:22:00,40.0,37.0,29.93,West,261,0.0,-999.0,89,-99.99,,,-99.99,,2013-04-15 13:22:00,
2013-04-15 06:32:00,40.0,37.0,29.93,West,275,0.0,-999.0,89,-99.99,,,-99.99,,2013-04-15 13:32:00,
2013-04-15 06:42:00,40.0,37.0,29.93,West,275,0.0,-999.0,89,-99.99,,,-99.99,,2013-04-15 13:42:00,
2013-04-15 06:53:00,41.0,38.0,29.94,West,275,0.0,-999.0,89,-99.99,,,-99.99,,2013-04-15 13:53:00,
2013-04-15 07:02:00,40.0,37.0,29.94,West,275,0.0,-999.0,89,-99.99,,,-99.99,,2013-04-15 14:02:00,
2013-04-15 07:12:00,40.0,37.0,29.94,West,275,0.0,-999.0,89,-99.99,,,-99.99,,2013-04-15 14:12:00,
2013-04-15 07:21:00,40.0,37.0,29.95,West,266,0.0,-999.0,89,-99.99,,,-99.99,,2013-04-15 14:21:00,
2013-04-15 07:32:00,40.0,37.0,29.95,West,270,0.0,-999.0,89,-99.99,,,-99.99,,2013-04-15 14:32:00,
2013-04-15 07:43:00,40.0,37.0,29.95,West,270,0.0,-999.0,89,-99.99,,,-99.99,,2013-04-15 14:43:00,
2013-04-15 07:54:00,41.0,38.0,29.96,West,270,0.0,-999.0,90,-99.99,,,-99.99,,2013-04-15 14:54:00,
2013-04-15 08:02:00,41.0,38.0,29.96,West,271,0.0,-999.0,89,-99.99,,,-99.99,,2013-04-15 15:02:00,
2013-04-15 08:12:00,41.0,38.0,29.96,West,271,0.0,-999.0,89,-99.99,,,-99.99,,2013-04-15 15:12:00,
2013-04-15 08:22:00,42.0,38.0,29.96,West,281,0.0,-999.0,86,-99.99,,,-99.99,,2013-04-15 15:22:00,
2013-04-15 08:33:00,43.0,39.0,29.96,West,277,0.0,-999.0,85,-99.99,,,-99.99,,2013-04-15 15:33:00,
2013-04-15 08:43:00,43.0,39.0,29.96,West,277,0.0,-999.0,85,-99.99,,,-99.99,,2013-04-15 15:43:00,
2013-04-15 08:54:00,45.0,40.0,29.97,West,263,1.0,-999.0,81,-99.99,,,-99.99,,2013-04-15 15:54:00,
2013-04-15 09:02:00,45.0,39.0,29.97,WSW,246,1.0,-999.0,78,-99.99,,,-99.99,,2013-04-15 16:02:00,
2013-04-15 09:12:00,45.0,39.0,29.97,WSW,246,1.0,-999.0,78,-99.99,,,-99.99,,2013-04-15 16:12:00,
2013-04-15 09:23:00,45.0,39.0,29.97,NW,304,1.0,-999.0,78,-99.99,,,-99.99,,2013-04-15 16:23:00,
2013-04-15 09:32:00,45.0,38.0,29.97,SW,219,0.0,-999.0,76,-99.99,,,-99.99,,2013-04-15 16:32:00,
2013-04-15 09:42:00,45.0,38.0,29.97,SW,219,0.0,-999.0,76,-99.99,,,-99.99,,2013-04-15 16:42:00,
2013-04-15 09:53:00,46.0,38.0,29.97,NW,314,0.0,-999.0,73,-99.99,,,-99.99,,2013-04-15 16:53:00,
2013-04-15 10:02:00,47.0,37.0,29.97,WNW,300,1.0,-999.0,69,-99.99,,,-99.99,,2013-04-15 17:02:00,
2013-04-15 10:12:00,47.0,37.0,29.97,WNW,300,1.0,-999.0,69,-99.99,,,-99.99,,2013-04-15 17:12:00,
2013-04-15 10:21:00,48.0,37.0,29.98,WSW,246,1.0,-999.0,66,-99.99,,,-99.99,,2013-04-15 17:21:00,
2013-04-15 10:32:00,47.0,38.0,29.98,West,266,1.0,-999.0,72,-99.99,,,-99.99,,2013-04-15 17:32:00,
2013-04-15 10:42:00,47.0,38.0,29.98,West,266,1.0,-999.0,72,-99.99,,,-99.99,,2013-04-15 17:42:00,
2013-04-15 10:52:00,46.0,38.0,29.98,SW,221,0.0,-999.0,74,-99.99,,,-99.99,,2013-04-15 17:52:00,
2013-04-15 11:02:00,46.0,40.0,29.98,East,98,1.0,-999.0,78,-99.99,,,-99.99,,2013-04-15 18:02:00,
2013-04-15 11:11:00,46.0,40.0,29.98,East,98,1.0,-999.0,78,-99.99,,,-99.99,,2013-04-15 18:11:00,
2013-04-15 11:22:00,46.0,40.0,29.98,ESE,107,3.0,-999.0,79,-99.99,,,-99.99,,2013-04-15 18:22:00,
2013-04-15 11:32:00,46.0,40.0,29.98,East,98,2.0,-999.0,79,-99.99,,,-99.99,,2013-04-15 18:32:00,
2013-04-15 11:42:00,46.0,40.0,29.98,East,98,2.0,-999.0,79,-99.99,,,-99.99,,2013-04-15 18:42:00,
2013-04-15 11:52:00,48.0,41.0,29.99,ESE,103,2.0,-999.0,77,-99.99,,,-99.99,,2013-04-15 18:52:00,
2013-04-15 12:01:00,47.0,40.0,29.99,East,90,2.0,-999.0,77,-99.99,,,-99.99,,2013-04-15 19:01:00,
2013-04-15 12:11:00,47.0,40.0,29.99,East,90,2.0,-999.0,77,-99.99,,,-99.99,,2013-04-15 19:11:00,
2013-04-15 12:21:00,49.0,41.0,29.99,SE,130,1.0,-999.0,75,-99.99,,,-99.99,,2013-04-15 19:21:00,
2013-04-15 12:32:00,50.0,40.0,29.98,NNE,30,1.0,-999.0,69,-99.99,,,-99.99,,2013-04-15 19:32:00,
2013-04-15 12:43:00,50.0,40.0,29.98,NNE,30,1.0,-999.0,69,-99.99,,,-99.99,,2013-04-15 19:43:00,
2013-04-15 12:59:00,50.0,40.0,29.99,NE,54,3.0,-999.0,68,-99.99,,,-99.99,,2013-04-15 19:59:00,
2013-04-15 13:01:00,49.0,39.0,29.99,ENE,65,2.0,-999.0,69,-99.99,,,-99.99,,2013-04-15 20:01:00,
2013-04-15 13:11:00,49.0,39.0,29.99,ENE,65,2.0,-999.0,69,-99.99,,,-99.99,,2013-04-15 20:11:00,
2013-04-15 13:21:00,52.0,40.0,30.00,West,263,2.0,-999.0,64,-99.99,,,-99.99,,2013-04-15 20:21:00,
2013-04-15 13:31:00,52.0,40.0,30.00,West,263,2.0,-999.0,64,-99.99,,,-99.99,,2013-04-15 20:31:00,
2013-04-15 13:42:00,52.0,40.0,30.00,West,263,2.0,-999.0,64,-99.99,,,-99.99,,2013-04-15 20:42:00,
2013-04-15 13:52:00,49.0,41.0,30.00,West,259,2.0,-999.0,75,-99.99,,,-99.99,,2013-04-15 20:52:00,
2013-04-15 14:01:00,49.0,40.0,30.00,SW,225,2.0,-999.0,72,-99.99,,,-99.99,,2013-04-15 21:01:00,
2013-04-15 14:11:00,49.0,40.0,30.00,SW,225,2.0,-999.0,72,-99.99,,,-99.99,,2013-04-15 21:11:00,
2013-04-15 14:21:00,50.0,40.0,30.00,SSE,165,4.0,-999.0,69,-99.99,,,-99.99,,2013-04-15 21:21:00,
2013-04-15 14:32:00,50.0,40.0,30.01,West,277,2.0,-999.0,68,-99.99,,,-99.99,,2013-04-15 21:32:00,
2013-04-15 14:42:00,50.0,40.0,30.01,West,277,2.0,-999.0,68,-99.99,,,-99.99,,2013-04-15 21:42:00,
2013-04-15 14:52:00,47.0,39.0,30.02,WNW,295,1.0,-999.0,75,-99.99,,,-99.99,,2013-04-15 21:52:00,
2013-04-15 15:02:00,47.0,42.0,30.02,SSW,211,1.0,-999.0,82,-99.99,,,-99.99,,2013-04-15 22:02:00,
2013-04-15 15:12:00,47.0,42.0,30.02,SSW,211,1.0,-999.0,82,-99.99,,,-99.99,,2013-04-15 22:12:00,
2013-04-15 15:22:00,50.0,43.0,30.01,WSW,238,2.0,-999.0,77,-99.99,,,-99.99,,2013-04-15 22:22:00,
2013-04-15 15:32:00,52.0,43.0,30.01,SE,134,2.0,-999.0,71,-99.99,,,-99.99,,2013-04-15 22:32:00,
2013-04-15 15:42:00,52.0,43.0,30.01,SE,134,2.0,-999.0,71,-99.99,,,-99.99,,2013-04-15 22:42:00,
2013-04-15 15:52:00,54.0,41.0,30.01,WNW,290,3.0,-999.0,62,-99.99,,,-99.99,,2013-04-15 22:52:00,
2013-04-15 16:02:00,55.0,41.0,30.01,WSW,243,3.0,-999.0,60,-99.99,,,-99.99,,2013-04-15 23:02:00,
2013-04-15 16:11:00,55.0,41.0,30.01,WSW,243,3.0,-999.0,60,-99.99,,,-99.99,,2013-04-15 23:11:00,
2013-04-15 16:22:00,54.0,40.0,30.01,NW,310,1.0,-999.0,59,-99.99,,,-99.99,,2013-04-15 23:22:00,
2013-04-15 16:31:00,53.0,39.0,30.01,NNW,330,1.0,-999.0,60,-99.99,,,-99.99,,2013-04-15 23:31:00,
2013-04-15 16:41:00,53.0,39.0,30.01,NNW,330,1.0,-999.0,60,-99.99,,,-99.99,,2013-04-15 23:41:00,
2013-04-15 16:52:00,55.0,40.0,30.01,NNW,335,6.0,-999.0,56,-99.99,,,-99.99,,2013-04-15 23:52:00,
2013-04-15 17:01:00,56.0,41.0,30.01,WSW,239,4.0,-999.0,56,-99.99,,,-99.99,,2013-04-16 00:01:00,
2013-04-15 17:11:00,56.0,41.0,30.01,WSW,239,4.0,-999.0,56,-99.99,,,-99.99,,2013-04-16 00:11:00,
2013-04-15 17:21:00,55.0,41.0,30.02,NW,310,5.0,-999.0,58,-99.99,,,-99.99,,2013-04-16 00:21:00,
2013-04-15 17:31:00,54.0,41.0,30.02,WSW,251,4.0,-999.0,62,-99.99,,,-99.99,,2013-04-16 00:31:00,
2013-04-15 17:41:00,54.0,41.0,30.02,WSW,251,4.0,-999.0,62,-99.99,,,-99.99,,2013-04-16 00:41:00,
2013-04-15 17:52:00,55.0,40.0,30.02,North,355,5.0,-999.0,57,-99.99,,,-99.99,,2013-04-16 00:52:00,
2013-04-15 18:01:00,55.0,40.0,30.03,NNW,330,4.0,-999.0,57,-99.99,,,-99.99,,2013-04-16 01:01:00,
2013-04-15 18:11:00,53.0,41.0,30.04,WNW,290,4.0,-999.0,63,-99.99,,,-99.99,,2013-04-16 01:11:00,
2013-04-15 18:21:00,53.0,41.0,30.04,WNW,290,4.0,-999.0,63,-99.99,,,-99.99,,2013-04-16 01:21:00,
2013-04-15 18:31:00,53.0,41.0,30.04,WNW,300,4.0,-999.0,63,-99.99,,,-99.99,,2013-04-16 01:31:00,
2013-04-15 18:42:00,53.0,41.0,30.04,WNW,300,4.0,-999.0,63,-99.99,,,-99.99,,2013-04-16 01:42:00,
2013-04-15 18:52:00,53.0,41.0,30.05,WNW,294,5.0,-999.0,63,-99.99,,,-99.99,,2013-04-16 01:52:00,
2013-04-15 19:01:00,53.0,40.0,30.05,West,279,3.0,-999.0,62,-99.99,,,-99.99,,2013-04-16 02:01:00,
2013-04-15 19:11:00,53.0,40.0,30.05,West,279,3.0,-999.0,62,-99.99,,,-99.99,,2013-04-16 02:11:00,
2013-04-15 19:21:00,52.0,40.0,30.06,NNW,327,3.0,-999.0,64,-99.99,,,-99.99,,2013-04-16 02:21:00,
2013-04-15 19:31:00,51.0,40.0,30.06,WNW,296,4.0,-999.0,66,-99.99,,,-99.99,,2013-04-16 02:31:00,
2013-04-15 19:42:00,51.0,40.0,30.06,WNW,296,4.0,-999.0,66,-99.99,,,-99.99,,2013-04-16 02:42:00,
2013-04-15 19:52:00,50.0,40.0,30.06,WNW,284,3.0,-999.0,69,-99.99,,,-99.99,,2013-04-16 02:52:00,
2013-04-15 20:02:00,50.0,41.0,30.07,NW,317,2.0,-999.0,70,-99.99,,,-99.99,,2013-04-16 03:02:00,
2013-04-15 20:11:00,50.0,41.0,30.07,NW,317,2.0,-999.0,70,-99.99,,,-99.99,,2013-04-16 03:11:00,
2013-04-15 20:22:00,49.0,40.0,30.07,West,264,2.0,-999.0,72,-99.99,,,-99.99,,2013-04-16 03:22:00,
2013-04-15 20:32:00,48.0,39.0,30.08,WNW,302,1.0,-999.0,72,-99.99,,,-99.99,,2013-04-16 03:32:00,
2013-04-15 20:43:00,48.0,39.0,30.08,WNW,302,1.0,-999.0,72,-99.99,,,-99.99,,2013-04-16 03:43:00,
2013-04-15 20:52:00,47.0,39.0,30.09,WNW,296,1.0,-999.0,74,-99.99,,,-99.99,,2013-04-16 03:52:00,
2013-04-15 21:02:00,47.0,39.0,30.09,WNW,284,1.0,-999.0,75,-99.99,,,-99.99,,2013-04-16 04:02:00,
2013-04-15 21:12:00,47.0,39.0,30.09,WNW,284,1.0,-999.0,75,-99.99,,,-99.99,,2013-04-16 04:12:00,
2013-04-15 21:23:00,46.0,39.0,30.11,WNW,300,1.0,-999.0,76,-99.99,,,-99.99,,2013-04-16 04:23:00,
2013-04-15 21:32:00,46.0,39.0,30.11,West,259,2.0,-999.0,77,-99.99,,,-99.99,,2013-04-16 04:32:00,
2013-04-15 21:42:00,46.0,39.0,30.11,West,259,2.0,-999.0,77,-99.99,,,-99.99,,2013-04-16 04:42:00,
2013-04-15 21:52:00,45.0,39.0,30.11,WSW,254,1.0,-999.0,79,-99.99,,,-99.99,,2013-04-16 04:52:00,
2013-04-15 22:02:00,45.0,39.0,30.12,WSW,256,0.0,-999.0,79,-99.99,,,-99.99,,2013-04-16 05:02:00,
2013-04-15 22:11:00,45.0,39.0,30.12,WSW,256,0.0,-999.0,79,-99.99,,,-99.99,,2013-04-16 05:11:00,
2013-04-15 22:22:00,44.0,38.0,30.12,West,264,0.0,-999.0,80,-99.99,,,-99.99,,2013-04-16 05:22:00,
2013-04-15 22:31:00,44.0,39.0,30.13,SW,227,0.0,-999.0,81,-99.99,,,-99.99,,2013-04-16 05:31:00,
2013-04-15 22:42:00,44.0,39.0,30.13,SW,227,0.0,-999.0,81,-99.99,,,-99.99,,2013-04-16 05:42:00,
2013-04-15 22:52:00,43.0,38.0,30.13,West,270,2.0,-999.0,82,-99.99,,,-99.99,,2013-04-16 05:52:00,
2013-04-15 23:02:00,43.0,38.0,30.13,WNW,292,0.0,-999.0,82,-99.99,,,-99.99,,2013-04-16 06:02:00,
2013-04-15 23:11:00,43.0,38.0,30.13,WNW,292,0.0,-999.0,82,-99.99,,,-99.99,,2013-04-16 06:11:00,
2013-04-15 23:21:00,43.0,38.0,30.14,WNW,292,0.0,-999.0,83,-99.99,,,-99.99,,2013-04-16 06:21:00,
2013-04-15 23:32:00,43.0,38.0,30.15,WNW,292,0.0,-999.0,83,-99.99,,,-99.99,,2013-04-16 06:32:00,
2013-04-15 23:41:00,43.0,38.0,30.15,WNW,292,0.0,-999.0,83,-99.99,,,-99.99,,2013-04-16 06:41:00,
2013-04-15 23:52:00,43.0,38.0,30.15,WNW,292,0.0,-999.0,82,-99.99,,,-99.99,,2013-04-16 06:52:00,